sensor_id;sensor_type;location;lat;lon;timestamp;P1;durP1;ratioP1;P2;durP2;ratioP2
828;SDS011;396;52.558;13.188;2023-04-01T00:01:50;6.50;;;1.73;;
828;SDS011;396;52.558;13.188;2023-04-01T00:04:16;6.40;;;1.47;;
828;SDS011;396;52.558;13.188;2023-04-01T00:06:43;7.80;;;1.70;;
828;SDS011;396;52.558;13.188;2023-04-01T00:09:09;5.87;;;1.57;;
828;SDS011;396;52.558;13.188;2023-04-01T00:11:36;5.90;;;1.43;;
828;SDS011;396;52.558;13.188;2023-04-01T00:14:03;5.53;;;1.50;;
828;SDS011;396;52.558;13.188;2023-04-01T00:16:30;6.60;;;1.97;;
828;SDS011;396;52.558;13.188;2023-04-01T00:18:58;5.30;;;1.40;;
828;SDS011;396;52.558;13.188;2023-04-01T00:21:25;6.07;;;1.70;;
828;SDS011;396;52.558;13.188;2023-04-01T00:23:51;5.97;;;1.73;;
828;SDS011;396;52.558;13.188;2023-04-01T00:26:18;7.73;;;1.60;;
828;SDS011;396;52.558;13.188;2023-04-01T00:28:46;5.80;;;1.40;;
828;SDS011;396;52.558;13.188;2023-04-01T00:31:13;6.07;;;1.40;;
828;SDS011;396;52.558;13.188;2023-04-01T00:33:40;7.13;;;1.40;;
828;SDS011;396;52.558;13.188;2023-04-01T00:36:09;6.00;;;1.80;;
828;SDS011;396;52.558;13.188;2023-04-01T00:38:38;4.97;;;1.13;;
828;SDS011;396;52.558;13.188;2023-04-01T00:41:05;5.70;;;1.43;;
828;SDS011;396;52.558;13.188;2023-04-01T00:43:32;9.60;;;1.50;;
828;SDS011;396;52.558;13.188;2023-04-01T00:45:59;5.97;;;1.67;;
828;SDS011;396;52.558;13.188;2023-04-01T00:48:27;5.90;;;1.60;;
828;SDS011;396;52.558;13.188;2023-04-01T00:50:58;6.80;;;1.60;;
828;SDS011;396;52.558;13.188;2023-04-01T00:53:28;6.37;;;1.60;;
828;SDS011;396;52.558;13.188;2023-04-01T00:55:58;6.53;;;1.50;;
828;SDS011;396;52.558;13.188;2023-04-01T00:58:27;5.30;;;1.50;;
828;SDS011;396;52.558;13.188;2023-04-01T01:00:57;5.53;;;1.57;;
828;SDS011;396;52.558;13.188;2023-04-01T01:03:25;8.13;;;1.97;;
828;SDS011;396;52.558;13.188;2023-04-01T01:06:00;6.40;;;1.73;;
828;SDS011;396;52.558;13.188;2023-04-01T01:08:43;6.30;;;1.37;;
828;SDS011;396;52.558;13.188;2023-04-01T01:11:26;7.00;;;1.57;;
828;SDS011;396;52.558;13.188;2023-04-01T01:14:01;7.13;;;1.50;;
828;SDS011;396;52.558;13.188;2023-04-01T01:16:34;6.80;;;1.93;;
828;SDS011;396;52.558;13.188;2023-04-01T01:19:06;5.67;;;1.70;;
828;SDS011;396;52.558;13.188;2023-04-01T01:21:48;8.07;;;1.87;;
828;SDS011;396;52.558;13.188;2023-04-01T01:24:31;6.70;;;1.50;;
828;SDS011;396;52.558;13.188;2023-04-01T01:27:09;5.50;;;1.50;;
828;SDS011;396;52.558;13.188;2023-04-01T01:32:50;4.90;;;1.33;;
828;SDS011;396;52.558;13.188;2023-04-01T01:35:32;6.33;;;1.80;;
828;SDS011;396;52.558;13.188;2023-04-01T01:38:02;8.10;;;1.60;;
828;SDS011;396;52.558;13.188;2023-04-01T01:40:32;5.23;;;1.37;;
828;SDS011;396;52.558;13.188;2023-04-01T01:43:02;10.30;;;1.50;;
828;SDS011;396;52.558;13.188;2023-04-01T01:45:32;5.63;;;1.40;;
828;SDS011;396;52.558;13.188;2023-04-01T01:48:02;5.87;;;1.43;;
828;SDS011;396;52.558;13.188;2023-04-01T01:50:32;8.20;;;1.60;;
828;SDS011;396;52.558;13.188;2023-04-01T01:53:01;6.10;;;1.47;;
828;SDS011;396;52.558;13.188;2023-04-01T01:55:32;6.63;;;1.67;;
828;SDS011;396;52.558;13.188;2023-04-01T01:58:00;5.20;;;1.33;;
828;SDS011;396;52.558;13.188;2023-04-01T02:00:38;5.90;;;1.40;;
828;SDS011;396;52.558;13.188;2023-04-01T02:03:06;6.53;;;1.60;;
828;SDS011;396;52.558;13.188;2023-04-01T02:05:35;5.33;;;1.20;;
828;SDS011;396;52.558;13.188;2023-04-01T02:08:03;6.83;;;1.57;;
828;SDS011;396;52.558;13.188;2023-04-01T02:10:34;5.30;;;1.70;;
828;SDS011;396;52.558;13.188;2023-04-01T02:13:05;5.40;;;1.50;;
828;SDS011;396;52.558;13.188;2023-04-01T02:15:40;5.17;;;1.23;;
828;SDS011;396;52.558;13.188;2023-04-01T02:18:10;5.73;;;1.40;;
828;SDS011;396;52.558;13.188;2023-04-01T02:20:40;7.50;;;1.60;;
828;SDS011;396;52.558;13.188;2023-04-01T02:23:08;5.23;;;1.70;;
828;SDS011;396;52.558;13.188;2023-04-01T02:25:37;5.90;;;1.57;;
828;SDS011;396;52.558;13.188;2023-04-01T02:28:05;5.80;;;2.00;;
828;SDS011;396;52.558;13.188;2023-04-01T02:30:34;5.27;;;1.43;;
828;SDS011;396;52.558;13.188;2023-04-01T02:33:04;6.33;;;1.50;;
828;SDS011;396;52.558;13.188;2023-04-01T02:35:32;9.43;;;1.73;;
828;SDS011;396;52.558;13.188;2023-04-01T02:38:03;5.50;;;1.43;;
828;SDS011;396;52.558;13.188;2023-04-01T02:40:40;6.77;;;1.30;;
828;SDS011;396;52.558;13.188;2023-04-01T02:43:08;5.93;;;1.63;;
828;SDS011;396;52.558;13.188;2023-04-01T02:45:35;5.20;;;1.30;;
828;SDS011;396;52.558;13.188;2023-04-01T02:48:02;9.13;;;1.87;;
828;SDS011;396;52.558;13.188;2023-04-01T02:50:29;6.73;;;1.37;;
828;SDS011;396;52.558;13.188;2023-04-01T02:52:55;5.73;;;1.63;;
828;SDS011;396;52.558;13.188;2023-04-01T02:55:23;6.13;;;1.67;;
828;SDS011;396;52.558;13.188;2023-04-01T02:57:50;5.57;;;1.40;;
828;SDS011;396;52.558;13.188;2023-04-01T03:00:17;4.93;;;1.23;;
828;SDS011;396;52.558;13.188;2023-04-01T03:02:43;5.73;;;1.50;;
828;SDS011;396;52.558;13.188;2023-04-01T03:05:10;6.23;;;1.40;;
828;SDS011;396;52.558;13.188;2023-04-01T03:07:37;4.97;;;1.20;;
828;SDS011;396;52.558;13.188;2023-04-01T03:10:05;5.67;;;1.63;;
828;SDS011;396;52.558;13.188;2023-04-01T03:12:34;6.27;;;1.37;;
828;SDS011;396;52.558;13.188;2023-04-01T03:15:00;7.70;;;2.10;;
828;SDS011;396;52.558;13.188;2023-04-01T03:17:27;6.27;;;1.40;;
828;SDS011;396;52.558;13.188;2023-04-01T03:19:54;4.90;;;0.93;;
828;SDS011;396;52.558;13.188;2023-04-01T03:22:20;5.30;;;1.20;;
828;SDS011;396;52.558;13.188;2023-04-01T03:24:47;6.67;;;1.80;;
828;SDS011;396;52.558;13.188;2023-04-01T03:27:14;6.20;;;1.73;;
828;SDS011;396;52.558;13.188;2023-04-01T03:29:42;6.10;;;1.73;;
828;SDS011;396;52.558;13.188;2023-04-01T03:32:09;9.33;;;1.67;;
828;SDS011;396;52.558;13.188;2023-04-01T03:34:35;5.20;;;1.20;;
828;SDS011;396;52.558;13.188;2023-04-01T03:37:02;9.10;;;1.77;;
828;SDS011;396;52.558;13.188;2023-04-01T03:39:29;5.50;;;1.60;;
828;SDS011;396;52.558;13.188;2023-04-01T03:41:56;5.60;;;1.30;;
828;SDS011;396;52.558;13.188;2023-04-01T03:44:23;5.63;;;1.20;;
828;SDS011;396;52.558;13.188;2023-04-01T03:46:51;5.00;;;1.40;;
828;SDS011;396;52.558;13.188;2023-04-01T03:49:18;5.50;;;1.60;;
828;SDS011;396;52.558;13.188;2023-04-01T03:51:44;4.83;;;1.17;;
828;SDS011;396;52.558;13.188;2023-04-01T03:54:11;6.47;;;1.60;;
828;SDS011;396;52.558;13.188;2023-04-01T03:56:37;5.97;;;1.60;;
828;SDS011;396;52.558;13.188;2023-04-01T03:59:05;5.70;;;1.57;;
828;SDS011;396;52.558;13.188;2023-04-01T04:01:33;4.87;;;1.07;;
828;SDS011;396;52.558;13.188;2023-04-01T04:04:01;4.83;;;1.07;;
828;SDS011;396;52.558;13.188;2023-04-01T04:06:28;7.57;;;1.73;;
828;SDS011;396;52.558;13.188;2023-04-01T04:08:54;7.43;;;1.90;;
828;SDS011;396;52.558;13.188;2023-04-01T04:11:21;6.13;;;1.43;;
828;SDS011;396;52.558;13.188;2023-04-01T04:13:48;5.37;;;1.30;;
828;SDS011;396;52.558;13.188;2023-04-01T04:16:15;6.03;;;1.43;;
828;SDS011;396;52.558;13.188;2023-04-01T04:18:42;7.03;;;1.10;;
828;SDS011;396;52.558;13.188;2023-04-01T04:21:12;6.67;;;1.33;;
828;SDS011;396;52.558;13.188;2023-04-01T04:23:40;6.00;;;1.33;;
828;SDS011;396;52.558;13.188;2023-04-01T04:26:07;5.90;;;1.57;;
828;SDS011;396;52.558;13.188;2023-04-01T04:28:35;5.60;;;1.50;;
828;SDS011;396;52.558;13.188;2023-04-01T04:31:02;6.33;;;1.47;;
828;SDS011;396;52.558;13.188;2023-04-01T04:33:29;6.93;;;1.60;;
828;SDS011;396;52.558;13.188;2023-04-01T04:35:57;5.27;;;1.40;;
828;SDS011;396;52.558;13.188;2023-04-01T04:38:26;5.30;;;1.50;;
828;SDS011;396;52.558;13.188;2023-04-01T04:40:53;6.63;;;2.10;;
828;SDS011;396;52.558;13.188;2023-04-01T04:43:19;5.63;;;1.60;;
828;SDS011;396;52.558;13.188;2023-04-01T04:45:46;5.80;;;1.40;;
828;SDS011;396;52.558;13.188;2023-04-01T04:48:13;6.73;;;1.70;;
828;SDS011;396;52.558;13.188;2023-04-01T04:50:43;8.07;;;1.70;;
828;SDS011;396;52.558;13.188;2023-04-01T04:53:10;5.90;;;1.90;;
828;SDS011;396;52.558;13.188;2023-04-01T04:55:42;8.43;;;1.77;;
828;SDS011;396;52.558;13.188;2023-04-01T04:58:09;6.40;;;1.87;;
828;SDS011;396;52.558;13.188;2023-04-01T05:00:35;5.97;;;1.60;;
828;SDS011;396;52.558;13.188;2023-04-01T05:03:02;7.93;;;1.53;;
828;SDS011;396;52.558;13.188;2023-04-01T05:05:28;6.10;;;1.63;;
828;SDS011;396;52.558;13.188;2023-04-01T05:07:55;7.50;;;1.63;;
828;SDS011;396;52.558;13.188;2023-04-01T05:10:22;6.33;;;1.73;;
828;SDS011;396;52.558;13.188;2023-04-01T05:12:50;6.93;;;2.33;;
828;SDS011;396;52.558;13.188;2023-04-01T05:15:16;7.60;;;1.87;;
828;SDS011;396;52.558;13.188;2023-04-01T05:17:43;8.23;;;2.43;;
828;SDS011;396;52.558;13.188;2023-04-01T05:20:11;9.70;;;3.40;;
828;SDS011;396;52.558;13.188;2023-04-01T05:22:38;8.60;;;3.20;;
828;SDS011;396;52.558;13.188;2023-04-01T05:25:05;9.10;;;3.00;;
828;SDS011;396;52.558;13.188;2023-04-01T05:27:32;8.73;;;2.00;;
828;SDS011;396;52.558;13.188;2023-04-01T05:30:01;9.97;;;2.60;;
828;SDS011;396;52.558;13.188;2023-04-01T05:32:28;6.37;;;2.10;;
828;SDS011;396;52.558;13.188;2023-04-01T05:34:54;8.17;;;2.77;;
828;SDS011;396;52.558;13.188;2023-04-01T05:37:21;7.30;;;2.27;;
828;SDS011;396;52.558;13.188;2023-04-01T05:39:48;7.30;;;2.80;;
828;SDS011;396;52.558;13.188;2023-04-01T05:42:15;14.13;;;3.20;;
828;SDS011;396;52.558;13.188;2023-04-01T05:44:41;6.53;;;2.10;;
828;SDS011;396;52.558;13.188;2023-04-01T05:47:09;7.67;;;2.53;;
828;SDS011;396;52.558;13.188;2023-04-01T05:49:36;8.30;;;2.40;;
828;SDS011;396;52.558;13.188;2023-04-01T05:52:02;7.73;;;2.40;;
828;SDS011;396;52.558;13.188;2023-04-01T05:54:29;6.70;;;2.40;;
828;SDS011;396;52.558;13.188;2023-04-01T05:56:55;6.60;;;2.20;;
828;SDS011;396;52.558;13.188;2023-04-01T05:59:22;7.00;;;2.40;;
828;SDS011;396;52.558;13.188;2023-04-01T06:01:49;6.07;;;1.97;;
828;SDS011;396;52.558;13.188;2023-04-01T06:04:17;7.10;;;2.00;;
828;SDS011;396;52.558;13.188;2023-04-01T06:06:44;6.10;;;2.10;;
828;SDS011;396;52.558;13.188;2023-04-01T06:09:13;9.10;;;2.10;;
828;SDS011;396;52.558;13.188;2023-04-01T06:11:46;7.50;;;2.00;;
828;SDS011;396;52.558;13.188;2023-04-01T06:14:26;5.90;;;1.77;;
828;SDS011;396;52.558;13.188;2023-04-01T06:17:04;5.80;;;2.00;;
828;SDS011;396;52.558;13.188;2023-04-01T06:19:41;6.00;;;1.80;;
828;SDS011;396;52.558;13.188;2023-04-01T06:25:17;7.80;;;1.80;;
828;SDS011;396;52.558;13.188;2023-04-01T06:27:57;6.30;;;2.03;;
828;SDS011;396;52.558;13.188;2023-04-01T06:30:34;7.27;;;2.40;;
828;SDS011;396;52.558;13.188;2023-04-01T06:33:24;10.73;;;2.87;;
828;SDS011;396;52.558;13.188;2023-04-01T06:36:14;6.73;;;1.80;;
828;SDS011;396;52.558;13.188;2023-04-01T06:38:53;6.70;;;2.17;;
828;SDS011;396;52.558;13.188;2023-04-01T06:41:37;6.40;;;2.30;;
828;SDS011;396;52.558;13.188;2023-04-01T06:44:16;5.90;;;1.90;;
828;SDS011;396;52.558;13.188;2023-04-01T06:46:51;5.87;;;1.60;;
828;SDS011;396;52.558;13.188;2023-04-01T06:49:33;9.63;;;1.80;;
828;SDS011;396;52.558;13.188;2023-04-01T06:52:11;8.10;;;2.43;;
828;SDS011;396;52.558;13.188;2023-04-01T06:54:44;6.50;;;1.80;;
828;SDS011;396;52.558;13.188;2023-04-01T06:57:18;6.00;;;2.20;;
828;SDS011;396;52.558;13.188;2023-04-01T06:59:50;6.23;;;1.63;;
828;SDS011;396;52.558;13.188;2023-04-01T07:02:20;7.70;;;1.30;;
828;SDS011;396;52.558;13.188;2023-04-01T07:04:52;5.60;;;1.57;;
828;SDS011;396;52.558;13.188;2023-04-01T07:07:24;6.53;;;2.07;;
828;SDS011;396;52.558;13.188;2023-04-01T07:09:57;5.90;;;1.73;;
828;SDS011;396;52.558;13.188;2023-04-01T07:12:30;14.67;;;1.80;;
828;SDS011;396;52.558;13.188;2023-04-01T07:15:11;7.20;;;2.30;;
828;SDS011;396;52.558;13.188;2023-04-01T07:17:43;5.80;;;1.60;;
828;SDS011;396;52.558;13.188;2023-04-01T07:20:12;6.93;;;1.90;;
828;SDS011;396;52.558;13.188;2023-04-01T07:22:47;11.07;;;2.07;;
828;SDS011;396;52.558;13.188;2023-04-01T07:25:17;5.33;;;1.57;;
828;SDS011;396;52.558;13.188;2023-04-01T07:27:46;5.40;;;1.67;;
828;SDS011;396;52.558;13.188;2023-04-01T07:30:14;6.40;;;1.97;;
828;SDS011;396;52.558;13.188;2023-04-01T07:32:42;6.27;;;1.77;;
828;SDS011;396;52.558;13.188;2023-04-01T07:35:16;6.00;;;2.17;;
828;SDS011;396;52.558;13.188;2023-04-01T07:37:57;6.57;;;2.20;;
828;SDS011;396;52.558;13.188;2023-04-01T07:40:35;6.97;;;2.17;;
828;SDS011;396;52.558;13.188;2023-04-01T07:43:11;6.70;;;2.13;;
828;SDS011;396;52.558;13.188;2023-04-01T07:45:50;9.10;;;1.40;;
828;SDS011;396;52.558;13.188;2023-04-01T07:48:25;6.00;;;1.87;;
828;SDS011;396;52.558;13.188;2023-04-01T07:51:02;10.97;;;2.53;;
828;SDS011;396;52.558;13.188;2023-04-01T07:53:36;6.97;;;1.53;;
828;SDS011;396;52.558;13.188;2023-04-01T07:56:10;7.63;;;1.87;;
828;SDS011;396;52.558;13.188;2023-04-01T07:58:44;6.23;;;2.10;;
828;SDS011;396;52.558;13.188;2023-04-01T08:01:20;8.70;;;1.60;;
828;SDS011;396;52.558;13.188;2023-04-01T08:04:01;6.00;;;1.60;;
828;SDS011;396;52.558;13.188;2023-04-01T08:06:43;5.63;;;1.77;;
828;SDS011;396;52.558;13.188;2023-04-01T08:09:16;6.00;;;1.70;;
828;SDS011;396;52.558;13.188;2023-04-01T08:12:02;6.00;;;1.70;;
828;SDS011;396;52.558;13.188;2023-04-01T08:14:36;8.00;;;1.90;;
828;SDS011;396;52.558;13.188;2023-04-01T08:17:13;5.27;;;1.13;;
828;SDS011;396;52.558;13.188;2023-04-01T08:19:50;5.50;;;1.20;;
828;SDS011;396;52.558;13.188;2023-04-01T08:22:29;6.50;;;1.20;;
828;SDS011;396;52.558;13.188;2023-04-01T08:25:00;5.90;;;1.23;;
828;SDS011;396;52.558;13.188;2023-04-01T08:27:34;4.97;;;1.07;;
828;SDS011;396;52.558;13.188;2023-04-01T08:30:04;4.90;;;1.13;;
828;SDS011;396;52.558;13.188;2023-04-01T08:32:41;4.47;;;0.90;;
828;SDS011;396;52.558;13.188;2023-04-01T08:35:14;7.50;;;1.30;;
828;SDS011;396;52.558;13.188;2023-04-01T08:37:46;5.37;;;1.20;;
828;SDS011;396;52.558;13.188;2023-04-01T08:40:25;5.27;;;0.90;;
828;SDS011;396;52.558;13.188;2023-04-01T08:43:06;4.80;;;1.00;;
828;SDS011;396;52.558;13.188;2023-04-01T08:45:45;4.63;;;0.90;;
828;SDS011;396;52.558;13.188;2023-04-01T08:48:35;4.90;;;0.90;;
828;SDS011;396;52.558;13.188;2023-04-01T08:54:18;5.13;;;1.00;;
828;SDS011;396;52.558;13.188;2023-04-01T08:56:57;5.00;;;0.97;;
828;SDS011;396;52.558;13.188;2023-04-01T08:59:47;5.17;;;1.43;;
828;SDS011;396;52.558;13.188;2023-04-01T09:05:31;5.83;;;1.10;;
828;SDS011;396;52.558;13.188;2023-04-01T09:08:08;6.03;;;1.43;;
828;SDS011;396;52.558;13.188;2023-04-01T09:10:56;7.17;;;2.20;;
828;SDS011;396;52.558;13.188;2023-04-01T09:16:46;6.17;;;2.00;;
828;SDS011;396;52.558;13.188;2023-04-01T09:19:28;6.90;;;1.90;;
828;SDS011;396;52.558;13.188;2023-04-01T09:22:10;8.77;;;2.30;;
828;SDS011;396;52.558;13.188;2023-04-01T09:24:52;6.37;;;2.10;;
828;SDS011;396;52.558;13.188;2023-04-01T09:27:32;7.67;;;2.50;;
828;SDS011;396;52.558;13.188;2023-04-01T09:30:11;8.70;;;2.77;;
828;SDS011;396;52.558;13.188;2023-04-01T09:36:04;8.10;;;2.63;;
828;SDS011;396;52.558;13.188;2023-04-01T09:38:41;7.40;;;2.70;;
828;SDS011;396;52.558;13.188;2023-04-01T09:41:24;9.90;;;4.03;;
828;SDS011;396;52.558;13.188;2023-04-01T09:43:58;9.37;;;3.67;;
828;SDS011;396;52.558;13.188;2023-04-01T09:46:32;8.40;;;3.70;;
828;SDS011;396;52.558;13.188;2023-04-01T09:49:26;11.10;;;4.07;;
828;SDS011;396;52.558;13.188;2023-04-01T09:52:13;10.50;;;4.57;;
828;SDS011;396;52.558;13.188;2023-04-01T09:54:59;8.97;;;3.70;;
828;SDS011;396;52.558;13.188;2023-04-01T10:09:52;12.73;;;3.77;;
828;SDS011;396;52.558;13.188;2023-04-01T10:12:49;11.90;;;4.90;;
828;SDS011;396;52.558;13.188;2023-04-01T10:15:39;9.10;;;3.37;;
828;SDS011;396;52.558;13.188;2023-04-01T10:18:28;9.87;;;4.10;;
828;SDS011;396;52.558;13.188;2023-04-01T10:24:19;8.93;;;3.90;;
828;SDS011;396;52.558;13.188;2023-04-01T10:30:29;9.67;;;3.60;;
828;SDS011;396;52.558;13.188;2023-04-01T10:33:17;7.60;;;3.30;;
828;SDS011;396;52.558;13.188;2023-04-01T10:39:27;11.40;;;4.27;;
828;SDS011;396;52.558;13.188;2023-04-01T10:42:05;9.90;;;4.20;;
828;SDS011;396;52.558;13.188;2023-04-01T10:47:57;9.07;;;3.60;;
828;SDS011;396;52.558;13.188;2023-04-01T10:53:42;9.07;;;4.00;;
828;SDS011;396;52.558;13.188;2023-04-01T10:59:15;9.93;;;4.63;;
828;SDS011;396;52.558;13.188;2023-04-01T11:02:06;9.97;;;4.20;;
828;SDS011;396;52.558;13.188;2023-04-01T11:17:36;8.10;;;3.00;;
828;SDS011;396;52.558;13.188;2023-04-01T11:23:22;9.80;;;3.03;;
828;SDS011;396;52.558;13.188;2023-04-01T11:26:03;9.00;;;3.53;;
828;SDS011;396;52.558;13.188;2023-04-01T11:28:53;7.70;;;2.70;;
828;SDS011;396;52.558;13.188;2023-04-01T11:34:23;8.20;;;3.00;;
828;SDS011;396;52.558;13.188;2023-04-01T11:37:04;8.90;;;2.77;;
828;SDS011;396;52.558;13.188;2023-04-01T11:39:39;7.77;;;2.90;;
828;SDS011;396;52.558;13.188;2023-04-01T11:42:20;8.53;;;3.03;;
828;SDS011;396;52.558;13.188;2023-04-01T11:44:57;8.00;;;3.03;;
828;SDS011;396;52.558;13.188;2023-04-01T11:47:44;6.60;;;2.70;;
828;SDS011;396;52.558;13.188;2023-04-01T11:50:38;8.77;;;3.37;;
828;SDS011;396;52.558;13.188;2023-04-01T11:53:21;10.53;;;3.33;;
828;SDS011;396;52.558;13.188;2023-04-01T11:55:55;8.80;;;3.83;;
828;SDS011;396;52.558;13.188;2023-04-01T11:58:33;8.67;;;3.37;;
828;SDS011;396;52.558;13.188;2023-04-01T12:01:14;7.87;;;2.83;;
828;SDS011;396;52.558;13.188;2023-04-01T12:04:11;7.73;;;3.37;;
828;SDS011;396;52.558;13.188;2023-04-01T12:07:03;11.77;;;3.70;;
828;SDS011;396;52.558;13.188;2023-04-01T12:09:38;10.83;;;3.60;;
828;SDS011;396;52.558;13.188;2023-04-01T12:12:16;8.90;;;3.47;;
828;SDS011;396;52.558;13.188;2023-04-01T12:14:53;9.10;;;3.13;;
828;SDS011;396;52.558;13.188;2023-04-01T12:17:31;7.63;;;2.90;;
828;SDS011;396;52.558;13.188;2023-04-01T12:20:14;9.67;;;3.50;;
828;SDS011;396;52.558;13.188;2023-04-01T12:22:53;8.13;;;3.67;;
828;SDS011;396;52.558;13.188;2023-04-01T12:25:27;8.43;;;3.50;;
828;SDS011;396;52.558;13.188;2023-04-01T12:28:19;8.57;;;3.60;;
828;SDS011;396;52.558;13.188;2023-04-01T12:31:00;8.70;;;3.83;;
828;SDS011;396;52.558;13.188;2023-04-01T12:33:52;8.67;;;4.03;;
828;SDS011;396;52.558;13.188;2023-04-01T12:36:34;7.87;;;3.03;;
828;SDS011;396;52.558;13.188;2023-04-01T12:39:17;11.40;;;4.00;;
828;SDS011;396;52.558;13.188;2023-04-01T12:41:58;7.93;;;3.30;;
828;SDS011;396;52.558;13.188;2023-04-01T12:44:47;8.97;;;3.30;;
828;SDS011;396;52.558;13.188;2023-04-01T12:47:30;8.87;;;3.63;;
828;SDS011;396;52.558;13.188;2023-04-01T12:50:23;9.60;;;4.00;;
828;SDS011;396;52.558;13.188;2023-04-01T12:53:00;8.40;;;2.97;;
828;SDS011;396;52.558;13.188;2023-04-01T12:55:40;6.73;;;2.60;;
828;SDS011;396;52.558;13.188;2023-04-01T12:58:15;10.73;;;3.53;;
828;SDS011;396;52.558;13.188;2023-04-01T13:01:03;8.47;;;3.67;;
828;SDS011;396;52.558;13.188;2023-04-01T13:03:55;7.30;;;2.80;;
828;SDS011;396;52.558;13.188;2023-04-01T13:07:00;12.63;;;4.33;;
828;SDS011;396;52.558;13.188;2023-04-01T13:09:45;10.47;;;4.70;;
828;SDS011;396;52.558;13.188;2023-04-01T13:12:34;9.60;;;4.03;;
828;SDS011;396;52.558;13.188;2023-04-01T13:15:11;8.87;;;3.20;;
828;SDS011;396;52.558;13.188;2023-04-01T13:17:48;10.13;;;4.17;;
828;SDS011;396;52.558;13.188;2023-04-01T13:20:23;10.90;;;4.50;;
828;SDS011;396;52.558;13.188;2023-04-01T13:23:03;9.90;;;3.80;;
828;SDS011;396;52.558;13.188;2023-04-01T13:25:39;8.93;;;3.43;;
828;SDS011;396;52.558;13.188;2023-04-01T13:28:12;10.83;;;4.33;;
828;SDS011;396;52.558;13.188;2023-04-01T13:30:47;9.03;;;3.80;;
828;SDS011;396;52.558;13.188;2023-04-01T13:33:21;12.67;;;4.67;;
828;SDS011;396;52.558;13.188;2023-04-01T13:35:57;9.90;;;3.97;;
828;SDS011;396;52.558;13.188;2023-04-01T13:38:40;13.80;;;4.63;;
828;SDS011;396;52.558;13.188;2023-04-01T13:41:18;10.60;;;4.10;;
828;SDS011;396;52.558;13.188;2023-04-01T13:43:52;10.80;;;3.67;;
828;SDS011;396;52.558;13.188;2023-04-01T13:46:32;8.93;;;4.10;;
828;SDS011;396;52.558;13.188;2023-04-01T13:49:12;9.93;;;3.07;;
828;SDS011;396;52.558;13.188;2023-04-01T13:52:29;9.23;;;3.80;;
828;SDS011;396;52.558;13.188;2023-04-01T13:58:04;9.87;;;3.23;;
828;SDS011;396;52.558;13.188;2023-04-01T14:00:53;7.40;;;2.60;;
828;SDS011;396;52.558;13.188;2023-04-01T14:03:32;10.10;;;3.30;;
828;SDS011;396;52.558;13.188;2023-04-01T14:06:23;5.83;;;1.70;;
828;SDS011;396;52.558;13.188;2023-04-01T14:12:05;5.90;;;2.33;;
828;SDS011;396;52.558;13.188;2023-04-01T14:14:44;7.20;;;2.63;;
828;SDS011;396;52.558;13.188;2023-04-01T14:17:29;5.73;;;2.10;;
828;SDS011;396;52.558;13.188;2023-04-01T14:20:14;8.37;;;2.60;;
828;SDS011;396;52.558;13.188;2023-04-01T14:23:02;9.20;;;2.70;;
828;SDS011;396;52.558;13.188;2023-04-01T14:25:50;6.10;;;1.90;;
828;SDS011;396;52.558;13.188;2023-04-01T14:28:37;7.03;;;2.07;;
828;SDS011;396;52.558;13.188;2023-04-01T14:34:22;11.00;;;2.13;;
828;SDS011;396;52.558;13.188;2023-04-01T14:37:01;5.70;;;1.60;;
828;SDS011;396;52.558;13.188;2023-04-01T14:42:49;7.40;;;2.20;;
828;SDS011;396;52.558;13.188;2023-04-01T14:45:36;6.50;;;2.23;;
828;SDS011;396;52.558;13.188;2023-04-01T14:48:25;8.70;;;1.83;;
828;SDS011;396;52.558;13.188;2023-04-01T14:50:57;6.70;;;2.00;;
828;SDS011;396;52.558;13.188;2023-04-01T14:53:34;5.30;;;1.50;;
828;SDS011;396;52.558;13.188;2023-04-01T14:56:06;9.30;;;2.60;;
828;SDS011;396;52.558;13.188;2023-04-01T14:58:41;6.93;;;1.90;;
828;SDS011;396;52.558;13.188;2023-04-01T15:01:17;6.57;;;2.10;;
828;SDS011;396;52.558;13.188;2023-04-01T15:03:55;6.97;;;2.30;;
828;SDS011;396;52.558;13.188;2023-04-01T15:06:45;6.50;;;1.80;;
828;SDS011;396;52.558;13.188;2023-04-01T15:09:23;6.53;;;2.20;;
828;SDS011;396;52.558;13.188;2023-04-01T15:12:02;6.07;;;1.93;;
828;SDS011;396;52.558;13.188;2023-04-01T15:14:41;6.97;;;2.13;;
828;SDS011;396;52.558;13.188;2023-04-01T15:17:26;7.27;;;2.70;;
828;SDS011;396;52.558;13.188;2023-04-01T15:20:22;6.33;;;2.33;;
828;SDS011;396;52.558;13.188;2023-04-01T15:23:02;8.87;;;2.77;;
828;SDS011;396;52.558;13.188;2023-04-01T15:25:45;7.97;;;3.07;;
828;SDS011;396;52.558;13.188;2023-04-01T15:28:24;7.23;;;2.63;;
828;SDS011;396;52.558;13.188;2023-04-01T15:31:00;7.97;;;2.60;;
828;SDS011;396;52.558;13.188;2023-04-01T15:33:46;9.10;;;3.03;;
828;SDS011;396;52.558;13.188;2023-04-01T15:36:20;6.63;;;2.13;;
828;SDS011;396;52.558;13.188;2023-04-01T15:39:00;8.40;;;2.70;;
828;SDS011;396;52.558;13.188;2023-04-01T15:41:39;6.00;;;2.00;;
828;SDS011;396;52.558;13.188;2023-04-01T15:44:32;7.07;;;2.73;;
828;SDS011;396;52.558;13.188;2023-04-01T15:47:30;8.40;;;2.37;;
828;SDS011;396;52.558;13.188;2023-04-01T15:50:04;11.73;;;2.40;;
828;SDS011;396;52.558;13.188;2023-04-01T15:52:50;7.40;;;2.27;;
828;SDS011;396;52.558;13.188;2023-04-01T15:55:30;7.17;;;2.30;;
828;SDS011;396;52.558;13.188;2023-04-01T15:58:06;7.53;;;2.50;;
828;SDS011;396;52.558;13.188;2023-04-01T16:00:58;6.50;;;2.27;;
828;SDS011;396;52.558;13.188;2023-04-01T16:03:39;7.00;;;2.10;;
828;SDS011;396;52.558;13.188;2023-04-01T16:06:17;6.90;;;2.23;;
828;SDS011;396;52.558;13.188;2023-04-01T16:09:16;8.30;;;2.73;;
828;SDS011;396;52.558;13.188;2023-04-01T16:11:55;10.60;;;2.93;;
828;SDS011;396;52.558;13.188;2023-04-01T16:14:28;7.70;;;2.97;;
828;SDS011;396;52.558;13.188;2023-04-01T16:17:10;8.17;;;3.27;;
828;SDS011;396;52.558;13.188;2023-04-01T16:19:51;6.93;;;2.43;;
828;SDS011;396;52.558;13.188;2023-04-01T16:22:23;7.40;;;2.40;;
828;SDS011;396;52.558;13.188;2023-04-01T16:24:56;9.30;;;3.00;;
828;SDS011;396;52.558;13.188;2023-04-01T16:27:33;6.80;;;2.83;;
828;SDS011;396;52.558;13.188;2023-04-01T16:30:17;7.87;;;2.70;;
828;SDS011;396;52.558;13.188;2023-04-01T16:32:54;8.73;;;3.00;;
828;SDS011;396;52.558;13.188;2023-04-01T16:35:29;8.33;;;2.20;;
828;SDS011;396;52.558;13.188;2023-04-01T16:38:09;8.50;;;2.90;;
828;SDS011;396;52.558;13.188;2023-04-01T16:40:43;8.90;;;2.87;;
828;SDS011;396;52.558;13.188;2023-04-01T16:43:19;7.93;;;2.83;;
828;SDS011;396;52.558;13.188;2023-04-01T16:46:12;7.73;;;2.60;;
828;SDS011;396;52.558;13.188;2023-04-01T16:48:49;8.93;;;2.70;;
828;SDS011;396;52.558;13.188;2023-04-01T16:51:25;7.07;;;2.33;;
828;SDS011;396;52.558;13.188;2023-04-01T16:54:06;8.77;;;2.50;;
828;SDS011;396;52.558;13.188;2023-04-01T16:56:41;8.13;;;2.40;;
828;SDS011;396;52.558;13.188;2023-04-01T16:59:14;8.07;;;3.00;;
828;SDS011;396;52.558;13.188;2023-04-01T17:01:47;8.83;;;2.67;;
828;SDS011;396;52.558;13.188;2023-04-01T17:04:20;6.80;;;2.33;;
828;SDS011;396;52.558;13.188;2023-04-01T17:06:53;6.60;;;2.27;;
828;SDS011;396;52.558;13.188;2023-04-01T17:09:27;6.60;;;2.40;;
828;SDS011;396;52.558;13.188;2023-04-01T17:12:06;7.20;;;2.07;;
828;SDS011;396;52.558;13.188;2023-04-01T17:14:41;6.97;;;2.17;;
828;SDS011;396;52.558;13.188;2023-04-01T17:17:20;6.00;;;1.80;;
828;SDS011;396;52.558;13.188;2023-04-01T17:23:13;6.03;;;1.90;;
828;SDS011;396;52.558;13.188;2023-04-01T17:25:53;11.50;;;2.20;;
828;SDS011;396;52.558;13.188;2023-04-01T17:28:30;5.77;;;2.17;;
828;SDS011;396;52.558;13.188;2023-04-01T17:31:07;11.77;;;2.63;;
828;SDS011;396;52.558;13.188;2023-04-01T17:33:47;6.40;;;1.97;;
828;SDS011;396;52.558;13.188;2023-04-01T17:36:41;5.80;;;1.80;;
828;SDS011;396;52.558;13.188;2023-04-01T17:39:33;7.80;;;2.50;;
828;SDS011;396;52.558;13.188;2023-04-01T17:42:13;7.00;;;2.43;;
828;SDS011;396;52.558;13.188;2023-04-01T17:44:53;7.13;;;2.20;;
828;SDS011;396;52.558;13.188;2023-04-01T17:47:31;8.10;;;2.00;;